createdAt,value
2018-02-03T00:03:00.611Z,0
2018-02-03T00:13:00.914Z,0
2018-02-03T00:23:00.662Z,0
2018-02-03T00:33:00.831Z,0
2018-02-03T00:43:00.822Z,0
2018-02-03T00:53:00.694Z,0
2018-02-03T01:03:00.805Z,0
2018-02-03T01:13:00.948Z,0
2018-02-03T01:23:00.715Z,0
2018-02-03T01:33:00.797Z,0
2018-02-03T01:43:00.713Z,0
2018-02-03T01:53:00.742Z,0
2018-02-03T02:03:00.717Z,0
2018-02-03T02:13:00.994Z,0
2018-02-03T02:23:00.749Z,0
2018-02-03T02:33:00.729Z,0
2018-02-03T02:43:00.764Z,0
2018-02-03T02:53:00.710Z,0
2018-02-03T03:03:00.845Z,0
2018-02-03T03:13:00.751Z,0
2018-02-03T03:23:00.835Z,0
2018-02-03T03:33:00.802Z,0
2018-02-03T03:43:00.803Z,0
2018-02-03T03:53:00.797Z,0
2018-02-03T04:03:00.772Z,0
2018-02-03T04:13:00.812Z,0
2018-02-03T04:23:00.755Z,0
2018-02-03T04:33:00.826Z,0
2018-02-03T04:43:00.779Z,0
2018-02-03T04:53:00.921Z,0
2018-02-03T05:03:00.845Z,0
2018-02-03T05:13:00.862Z,0
2018-02-03T05:23:00.844Z,0
2018-02-03T05:33:00.891Z,0
2018-02-03T05:43:00.875Z,0
2018-02-03T05:53:00.852Z,0
2018-02-03T06:03:00.882Z,0
2018-02-03T06:13:00.872Z,0
2018-02-03T06:23:00.960Z,0
2018-02-03T06:33:00.891Z,4
2018-02-03T06:43:00.934Z,8
2018-02-03T06:53:00.902Z,24
2018-02-03T07:03:00.978Z,56
2018-02-03T07:13:00.898Z,88
2018-02-03T07:23:00.971Z,176
2018-02-03T07:33:00.981Z,280
2018-02-03T07:43:00.901Z,980
2018-02-03T07:53:01.027Z,804
2018-02-03T08:03:00.983Z,2284
2018-02-03T08:13:01.056Z,1588
2018-02-03T08:23:01.001Z,1908
2018-02-03T08:33:01.061Z,2732
2018-02-03T08:43:00.993Z,1812
2018-02-03T08:53:01.078Z,1548
2018-02-03T09:03:01.015Z,3548
2018-02-03T09:13:01.009Z,5088
2018-02-03T09:23:01.077Z,4244
2018-02-03T09:33:01.759Z,4792
2018-02-03T09:43:01.065Z,6444
2018-02-03T09:53:00.989Z,7856
2018-02-03T10:03:01.109Z,5696
2018-02-03T10:13:01.052Z,7332
2018-02-03T10:23:01.110Z,9528
2018-02-03T10:33:01.196Z,10300
2018-02-03T10:43:02.349Z,7156
2018-02-03T10:53:01.284Z,6304
2018-02-03T11:03:01.603Z,6124
2018-02-03T11:13:01.209Z,7356
2018-02-03T11:23:01.203Z,7096
2018-02-03T11:33:05.610Z,5436
2018-02-03T11:43:01.212Z,4692
2018-02-03T11:53:01.333Z,6172
2018-02-03T12:03:01.244Z,8208
2018-02-03T12:13:01.184Z,8568
2018-02-03T12:23:01.254Z,6260
2018-02-03T12:33:01.279Z,6812
2018-02-03T12:43:01.267Z,6652
2018-02-03T12:53:01.205Z,6488
2018-02-03T13:03:01.517Z,6820
2018-02-03T13:13:01.205Z,6060
2018-02-03T13:23:01.297Z,5648
2018-02-03T13:33:01.258Z,5064
2018-02-03T13:43:01.352Z,5056
2018-02-03T13:53:01.327Z,4720
2018-02-03T14:03:01.312Z,4004
2018-02-03T14:13:01.250Z,4048
2018-02-03T14:23:01.587Z,3996
2018-02-03T14:33:01.426Z,3568
2018-02-03T14:43:01.343Z,2536
2018-02-03T14:53:01.288Z,1536
2018-02-03T15:03:01.335Z,1588
2018-02-03T15:13:01.313Z,776
2018-02-03T15:23:01.378Z,804
2018-02-03T15:33:01.473Z,536
2018-02-03T15:43:01.436Z,524
2018-02-03T15:53:01.499Z,508
2018-02-03T16:03:01.470Z,248
2018-02-03T16:13:01.618Z,60
2018-02-03T16:23:01.453Z,48
2018-02-03T16:33:01.399Z,12
2018-02-03T16:43:01.347Z,4
2018-02-03T16:53:01.449Z,4
2018-02-03T17:03:01.452Z,4
2018-02-03T17:13:01.463Z,4
2018-02-03T17:23:01.386Z,0
2018-02-03T17:33:01.439Z,0
2018-02-03T17:43:01.709Z,0
2018-02-03T17:53:01.613Z,4
2018-02-03T18:03:01.528Z,4
2018-02-03T18:13:01.577Z,4
2018-02-03T18:23:01.558Z,4
2018-02-03T18:33:01.835Z,4
2018-02-03T18:43:01.472Z,0
2018-02-03T18:53:01.519Z,0
2018-02-03T19:03:01.478Z,0
2018-02-03T19:13:03.660Z,0
2018-02-03T19:23:01.446Z,4
2018-02-03T19:33:01.709Z,0
2018-02-03T19:43:01.517Z,0
2018-02-03T19:53:01.599Z,0
2018-02-03T20:03:01.553Z,0
2018-02-03T20:13:01.484Z,0
2018-02-03T20:23:01.566Z,0
2018-02-03T20:33:01.553Z,0
2018-02-03T20:43:01.621Z,0
2018-02-03T20:53:01.565Z,0
2018-02-03T21:03:01.651Z,0
2018-02-03T21:13:01.589Z,0
2018-02-03T21:23:01.636Z,0
2018-02-03T21:33:01.629Z,0
2018-02-03T21:43:01.630Z,0
2018-02-03T21:53:01.654Z,0
2018-02-03T22:03:01.580Z,0
2018-02-03T22:13:01.616Z,0
2018-02-03T22:23:01.616Z,0
2018-02-03T22:33:01.785Z,0
2018-02-03T22:43:01.662Z,0
2018-02-03T22:53:01.694Z,4
2018-02-03T23:03:01.680Z,0
2018-02-03T23:13:01.727Z,0
2018-02-03T23:23:01.677Z,0
2018-02-03T23:33:01.751Z,0
2018-02-03T23:43:01.691Z,0
2018-02-03T23:53:01.676Z,0
